Time;durP1;ratioP1;P1;durP2;ratioP2;P2;SDS_P1;SDS_P2;PMS_P1;PMS_P2;Temp;Humidity;BMP_temperature;BMP_pressure;BME280_temperature;BME280_humidity;BME280_pressure;Samples;Min_cycle;Max_cycle;Signal;HPM_P1;HPM_P2
2022/07/07 00:00:48;;;;;;;7.40;4.03;;;;;;;;;;5075559;28;20609;-75
2022/07/07 00:03:15;;;;;;;8.93;3.80;;;;;;;;;;5069486;28;20563;-76
2022/07/07 00:05:43;;;;;;;9.63;3.77;;;;;;;;;;5073898;28;20283;-76
2022/07/07 00:08:10;;;;;;;7.40;3.40;;;;;;;;;;5065362;28;20204;-76
2022/07/07 00:10:37;;;;;;;4.67;2.93;;;;;;;;;;5074799;28;20202;-75
2022/07/07 00:13:05;;;;;;;7.33;3.20;;;;;;;;;;5093018;28;20202;-76
2022/07/07 00:15:32;;;;;;;4.27;3.00;;;;;;;;;;5085761;28;20201;-75
2022/07/07 00:18:01;;;;;;;7.67;3.37;;;;;;;;;;5072734;28;20214;-76
2022/07/07 00:20:28;;;;;;;6.57;3.10;;;;;;;;;;5072557;28;20631;-76
2022/07/07 00:22:55;;;;;;;7.83;3.13;;;;;;;;;;5083919;28;20249;-76
2022/07/07 00:25:23;;;;;;;6.00;3.17;;;;;;;;;;5073381;28;20222;-76
2022/07/07 00:27:50;;;;;;;5.67;3.30;;;;;;;;;;5078380;28;20249;-76
2022/07/07 00:30:17;;;;;;;8.37;3.00;;;;;;;;;;5092900;28;20234;-75
2022/07/07 00:32:44;;;;;;;9.10;3.03;;;;;;;;;;5071383;28;20686;-75
2022/07/07 00:35:13;;;;;;;9.40;3.20;;;;;;;;;;5072690;28;20237;-75
2022/07/07 00:37:40;;;;;;;6.90;2.90;;;;;;;;;;5084077;28;20294;-76
2022/07/07 00:40:07;;;;;;;9.03;3.40;;;;;;;;;;5071314;28;20255;-76
2022/07/07 00:42:35;;;;;;;5.40;2.90;;;;;;;;;;5070471;28;20239;-75
2022/07/07 00:45:02;;;;;;;7.07;3.00;;;;;;;;;;5076234;28;21698;-76
2022/07/07 00:47:36;;;;;;;8.80;3.10;;;;;;;;;;5072911;28;20199;-74
2022/07/07 00:50:04;;;;;;;10.53;2.97;;;;;;;;;;5084383;28;20658;-76
2022/07/07 00:52:33;;;;;;;7.60;2.90;;;;;;;;;;5065112;28;20284;-76
2022/07/07 00:55:02;;;;;;;11.13;3.50;;;;;;;;;;5080957;28;20238;-76
2022/07/07 00:57:29;;;;;;;7.73;3.03;;;;;;;;;;5076068;28;20648;-76
2022/07/07 00:59:57;;;;;;;8.10;3.20;;;;;;;;;;5052605;28;20317;-76
2022/07/07 01:02:24;;;;;;;7.47;3.33;;;;;;;;;;5070072;28;20249;-75
2022/07/07 01:04:52;;;;;;;7.67;2.87;;;;;;;;;;5072629;28;20305;-76
2022/07/07 01:07:19;;;;;;;8.83;3.23;;;;;;;;;;5072012;28;20202;-75
2022/07/07 01:09:48;;;;;;;7.30;3.00;;;;;;;;;;5074319;28;20230;-76
2022/07/07 01:12:15;;;;;;;9.13;3.33;;;;;;;;;;5074768;28;20235;-75
2022/07/07 01:14:42;;;;;;;7.63;2.90;;;;;;;;;;5084605;28;20281;-75
2022/07/07 01:17:09;;;;;;;8.17;3.03;;;;;;;;;;5071318;28;20290;-76
2022/07/07 01:19:36;;;;;;;7.93;2.97;;;;;;;;;;5071927;28;20772;-76
2022/07/07 01:22:05;;;;;;;7.60;3.40;;;;;;;;;;5072459;28;20207;-74
2022/07/07 01:24:34;;;;;;;5.23;2.87;;;;;;;;;;5066254;28;20204;-75
2022/07/07 01:27:08;;;;;;;6.27;2.90;;;;;;;;;;5066411;28;20196;-75
2022/07/07 01:29:37;;;;;;;9.20;2.93;;;;;;;;;;5075267;28;20229;-75
2022/07/07 01:32:05;;;;;;;7.97;2.97;;;;;;;;;;5071096;28;20210;-74
2022/07/07 01:34:32;;;;;;;6.93;2.90;;;;;;;;;;5076574;28;20198;-76
2022/07/07 01:37:00;;;;;;;8.00;2.73;;;;;;;;;;5084536;28;20276;-75
2022/07/07 01:39:27;;;;;;;9.07;3.10;;;;;;;;;;5062803;28;20305;-76
2022/07/07 01:41:56;;;;;;;9.47;3.37;;;;;;;;;;5060565;28;20290;-75
2022/07/07 01:44:23;;;;;;;11.40;3.03;;;;;;;;;;5071187;28;20245;-76
2022/07/07 01:46:50;;;;;;;8.43;2.87;;;;;;;;;;5056342;28;20966;-76
2022/07/07 01:49:18;;;;;;;8.83;3.23;;;;;;;;;;5070612;28;20335;-76
2022/07/07 01:51:45;;;;;;;7.03;3.27;;;;;;;;;;5071340;28;20266;-76
2022/07/07 01:54:13;;;;;;;8.60;2.77;;;;;;;;;;5071946;28;20286;-76
2022/07/07 01:56:40;;;;;;;8.73;3.30;;;;;;;;;;5071355;28;20235;-76
2022/07/07 01:59:09;;;;;;;7.63;3.10;;;;;;;;;;5069139;28;20227;-76
2022/07/07 02:01:37;;;;;;;8.97;2.90;;;;;;;;;;5064738;28;20214;-76
2022/07/07 02:04:04;;;;;;;7.87;3.43;;;;;;;;;;5072168;28;20639;-76
2022/07/07 02:06:32;;;;;;;7.93;3.20;;;;;;;;;;5073084;28;20230;-76
2022/07/07 02:08:59;;;;;;;7.57;2.90;;;;;;;;;;5069639;28;20284;-76
2022/07/07 02:11:26;;;;;;;7.47;3.00;;;;;;;;;;5077645;28;21006;-75
2022/07/07 02:13:54;;;;;;;9.80;3.27;;;;;;;;;;5062276;28;20239;-75
2022/07/07 02:16:24;;;;;;;9.57;3.00;;;;;;;;;;5074202;28;20290;-75
2022/07/07 02:18:54;;;;;;;8.23;3.17;;;;;;;;;;5075490;28;20263;-76
2022/07/07 02:21:22;;;;;;;9.97;3.33;;;;;;;;;;5075679;28;20198;-76
2022/07/07 02:23:51;;;;;;;10.03;3.10;;;;;;;;;;5075891;28;20237;-75
2022/07/07 02:26:18;;;;;;;6.50;3.10;;;;;;;;;;5065459;28;20678;-76
2022/07/07 02:28:45;;;;;;;7.73;3.00;;;;;;;;;;5073546;28;20722;-75
2022/07/07 02:31:13;;;;;;;9.97;3.20;;;;;;;;;;5074985;28;20250;-76
2022/07/07 02:33:42;;;;;;;10.87;3.03;;;;;;;;;;5071746;28;20614;-76
2022/07/07 02:36:11;;;;;;;9.87;3.33;;;;;;;;;;5075647;28;20190;-75
2022/07/07 02:38:38;;;;;;;9.33;3.20;;;;;;;;;;5072710;28;20282;-75
2022/07/07 02:41:06;;;;;;;7.37;2.90;;;;;;;;;;5079924;28;20253;-75
2022/07/07 02:43:33;;;;;;;10.80;3.00;;;;;;;;;;5064962;28;20210;-75
2022/07/07 02:46:01;;;;;;;9.57;3.13;;;;;;;;;;5073930;28;20226;-76
2022/07/07 02:48:28;;;;;;;9.03;2.93;;;;;;;;;;5058639;28;20199;-75
2022/07/07 02:50:56;;;;;;;10.10;3.30;;;;;;;;;;5075617;28;20259;-76
2022/07/07 02:53:24;;;;;;;11.23;3.50;;;;;;;;;;5063469;28;20281;-75
2022/07/07 02:55:51;;;;;;;10.40;3.00;;;;;;;;;;5076192;28;20233;-75
2022/07/07 02:58:22;;;;;;;8.43;3.30;;;;;;;;;;5074893;28;20256;-75
2022/07/07 03:00:50;;;;;;;10.97;3.27;;;;;;;;;;5074571;28;20306;-76
2022/07/07 03:03:17;;;;;;;11.33;3.37;;;;;;;;;;5063660;28;20642;-76
2022/07/07 03:05:45;;;;;;;6.90;3.03;;;;;;;;;;5068879;28;20207;-76
2022/07/07 03:08:14;;;;;;;9.30;3.17;;;;;;;;;;5072980;28;20732;-76
2022/07/07 03:10:41;;;;;;;8.20;2.97;;;;;;;;;;5065944;28;20198;-76
2022/07/07 03:13:08;;;;;;;10.00;3.00;;;;;;;;;;5063668;28;20234;-76
2022/07/07 03:15:35;;;;;;;9.07;3.10;;;;;;;;;;5066306;28;20206;-76
2022/07/07 03:18:02;;;;;;;9.33;3.20;;;;;;;;;;5074027;28;20246;-76
2022/07/07 03:20:30;;;;;;;10.33;3.30;;;;;;;;;;5073979;28;20317;-76
2022/07/07 03:22:57;;;;;;;8.03;3.40;;;;;;;;;;5073957;28;20238;-76
2022/07/07 03:25:26;;;;;;;11.43;3.77;;;;;;;;;;5090057;28;20234;-76
2022/07/07 03:27:53;;;;;;;10.50;2.90;;;;;;;;;;5072410;28;20286;-76
2022/07/07 03:30:20;;;;;;;10.00;3.20;;;;;;;;;;5054344;28;20231;-76
2022/07/07 03:32:47;;;;;;;10.80;3.47;;;;;;;;;;5058315;28;20256;-75
2022/07/07 03:35:15;;;;;;;8.03;3.60;;;;;;;;;;5082113;28;20281;-74
2022/07/07 03:37:42;;;;;;;10.80;3.70;;;;;;;;;;5071337;28;20234;-76
2022/07/07 03:40:10;;;;;;;6.73;3.03;;;;;;;;;;5055869;28;20259;-75
2022/07/07 03:42:39;;;;;;;8.03;3.20;;;;;;;;;;5067364;28;20246;-76
2022/07/07 03:45:06;;;;;;;8.93;3.20;;;;;;;;;;5063729;28;20231;-75
2022/07/07 03:47:34;;;;;;;9.33;3.40;;;;;;;;;;5065325;28;20199;-76
2022/07/07 03:50:01;;;;;;;9.43;3.10;;;;;;;;;;5080056;28;20277;-76
2022/07/07 03:52:28;;;;;;;11.20;3.33;;;;;;;;;;5079255;28;20309;-77
2022/07/07 03:54:55;;;;;;;8.87;3.20;;;;;;;;;;5083533;28;20196;-77
2022/07/07 03:57:23;;;;;;;6.67;3.07;;;;;;;;;;5053989;28;20242;-78
2022/07/07 03:59:51;;;;;;;7.27;3.27;;;;;;;;;;5072821;28;20621;-78
2022/07/07 04:02:18;;;;;;;10.67;3.30;;;;;;;;;;5072011;28;20294;-77
2022/07/07 04:04:46;;;;;;;9.40;2.80;;;;;;;;;;5072697;28;20313;-78
2022/07/07 04:07:13;;;;;;;9.97;2.87;;;;;;;;;;5073535;28;20612;-78
2022/07/07 04:09:40;;;;;;;9.73;3.10;;;;;;;;;;5081203;28;20274;-78
2022/07/07 04:12:08;;;;;;;8.67;2.80;;;;;;;;;;5076397;28;20234;-77
2022/07/07 04:14:35;;;;;;;7.53;2.97;;;;;;;;;;5081245;28;20305;-78
2022/07/07 04:17:04;;;;;;;8.97;3.43;;;;;;;;;;5061339;28;20227;-78
2022/07/07 04:19:31;;;;;;;7.23;2.90;;;;;;;;;;5052904;28;20231;-78
2022/07/07 04:21:58;;;;;;;9.97;3.53;;;;;;;;;;5057551;28;20235;-78
2022/07/07 04:24:25;;;;;;;9.30;3.20;;;;;;;;;;5072943;28;20241;-77
2022/07/07 04:26:53;;;;;;;7.13;3.37;;;;;;;;;;5081045;28;20203;-78
2022/07/07 04:29:20;;;;;;;10.53;3.40;;;;;;;;;;5068626;28;20223;-78
2022/07/07 04:31:47;;;;;;;9.60;3.53;;;;;;;;;;5060553;28;20330;-78
2022/07/07 04:34:15;;;;;;;10.97;3.53;;;;;;;;;;5072922;28;20237;-77
2022/07/07 04:36:43;;;;;;;10.33;3.70;;;;;;;;;;5069028;28;20235;-78
2022/07/07 04:39:10;;;;;;;11.97;3.60;;;;;;;;;;5064054;28;20579;-78
2022/07/07 04:41:37;;;;;;;11.00;3.33;;;;;;;;;;5061504;28;20253;-78
2022/07/07 04:44:05;;;;;;;8.83;3.23;;;;;;;;;;5083885;28;20199;-78
2022/07/07 04:46:32;;;;;;;9.20;3.40;;;;;;;;;;5071111;28;20671;-78
2022/07/07 04:48:59;;;;;;;7.80;3.50;;;;;;;;;;5080373;28;20207;-78
2022/07/07 04:51:28;;;;;;;12.97;3.43;;;;;;;;;;5065637;28;20258;-77
2022/07/07 04:53:55;;;;;;;11.20;3.17;;;;;;;;;;5063415;28;20227;-78
2022/07/07 04:56:22;;;;;;;9.33;3.10;;;;;;;;;;5054470;28;20286;-78
2022/07/07 04:58:49;;;;;;;12.27;3.80;;;;;;;;;;5062767;28;20290;-78
2022/07/07 05:01:17;;;;;;;7.10;3.00;;;;;;;;;;5071787;28;20297;-78
2022/07/07 05:03:44;;;;;;;11.20;3.30;;;;;;;;;;5066212;28;20287;-78
2022/07/07 05:06:11;;;;;;;8.47;3.40;;;;;;;;;;5052552;28;20234;-78
2022/07/07 05:08:40;;;;;;;7.50;3.37;;;;;;;;;;5055915;28;20222;-78
2022/07/07 05:11:08;;;;;;;11.23;3.57;;;;;;;;;;5081464;28;20285;-78
2022/07/07 05:13:35;;;;;;;9.73;3.33;;;;;;;;;;5085493;28;20240;-78
2022/07/07 05:16:02;;;;;;;10.37;3.70;;;;;;;;;;5088504;28;20730;-77
2022/07/07 05:18:31;;;;;;;10.77;3.93;;;;;;;;;;5078081;28;20230;-77
2022/07/07 05:21:08;;;;;;;9.27;3.07;;;;;;;;;;5072707;28;20227;-77
2022/07/07 05:23:35;;;;;;;8.40;3.10;;;;;;;;;;5052330;28;20215;-78
2022/07/07 05:26:03;;;;;;;7.23;3.40;;;;;;;;;;5052770;28;20625;-77
2022/07/07 05:28:31;;;;;;;8.63;3.53;;;;;;;;;;5052393;28;20290;-78
2022/07/07 05:30:59;;;;;;;7.40;3.50;;;;;;;;;;5052662;28;20203;-77
2022/07/07 05:33:26;;;;;;;7.77;3.23;;;;;;;;;;5063198;28;20674;-77
2022/07/07 05:35:53;;;;;;;10.03;3.10;;;;;;;;;;5073169;28;20633;-77
2022/07/07 05:38:20;;;;;;;6.93;3.07;;;;;;;;;;5087794;28;20225;-77
2022/07/07 05:40:47;;;;;;;10.37;2.87;;;;;;;;;;5064279;28;20664;-77
2022/07/07 05:43:16;;;;;;;8.30;3.03;;;;;;;;;;5062366;28;20239;-77
2022/07/07 05:45:43;;;;;;;5.43;2.60;;;;;;;;;;5088385;28;20282;-77
2022/07/07 05:48:32;;;;;;;6.43;2.90;;;;;;;;;;5070438;28;20559;-78
2022/07/07 05:50:59;;;;;;;4.33;2.30;;;;;;;;;;5071720;28;20239;-78
2022/07/07 05:53:26;;;;;;;5.47;2.20;;;;;;;;;;5075312;28;20230;-77
2022/07/07 05:55:53;;;;;;;8.82;2.35;;;;;;;;;;5075925;28;20282;-78
2022/07/07 05:58:22;;;;;;;4.97;2.00;;;;;;;;;;5076493;28;20269;-78
2022/07/07 06:00:49;;;;;;;8.75;2.20;;;;;;;;;;5075969;28;20262;-78
2022/07/07 06:03:16;;;;;;;7.57;2.20;;;;;;;;;;5076117;28;20298;-78
2022/07/07 06:05:44;;;;;;;6.18;2.47;;;;;;;;;;5075874;28;20249;-78
2022/07/07 06:08:11;;;;;;;4.25;2.10;;;;;;;;;;5076369;28;20197;-78
2022/07/07 06:10:38;;;;;;;6.85;2.08;;;;;;;;;;5076584;28;20250;-78
2022/07/07 06:13:06;;;;;;;5.57;2.00;;;;;;;;;;5075900;28;20203;-78
2022/07/07 06:15:35;;;;;;;4.68;2.08;;;;;;;;;;5075374;28;20242;-78
2022/07/07 06:18:02;;;;;;;6.35;2.08;;;;;;;;;;5075304;28;20642;-78
2022/07/07 06:20:30;;;;;;;8.48;2.15;;;;;;;;;;5075621;28;20230;-78
2022/07/07 06:22:57;;;;;;;7.60;1.95;;;;;;;;;;5075447;28;20231;-78
2022/07/07 06:25:26;;;;;;;5.45;2.03;;;;;;;;;;5075522;28;20234;-78
2022/07/07 06:27:53;;;;;;;7.63;2.00;;;;;;;;;;5075553;28;20203;-79
2022/07/07 06:30:20;;;;;;;5.38;1.90;;;;;;;;;;5075121;28;20695;-79
2022/07/07 06:32:49;;;;;;;6.45;1.90;;;;;;;;;;5075652;28;20234;-79
2022/07/07 06:35:16;;;;;;;6.53;2.10;;;;;;;;;;5075415;28;20722;-78
2022/07/07 06:37:43;;;;;;;3.17;1.83;;;;;;;;;;5075668;28;20210;-78
2022/07/07 06:40:11;;;;;;;6.85;1.88;;;;;;;;;;5075155;28;20273;-79
2022/07/07 06:42:38;;;;;;;6.95;2.05;;;;;;;;;;5075283;28;20199;-79
2022/07/07 06:45:06;;;;;;;4.00;2.17;;;;;;;;;;5074730;28;20655;-79
2022/07/07 06:47:34;;;;;;;3.55;2.03;;;;;;;;;;5075235;28;20203;-78
2022/07/07 06:50:03;;;;;;;7.20;2.05;;;;;;;;;;5062691;28;20236;-78
2022/07/07 06:52:30;;;;;;;3.47;1.90;;;;;;;;;;5053945;28;20297;-79
2022/07/07 06:54:57;;;;;;;9.48;2.60;;;;;;;;;;5089741;28;20553;-79
2022/07/07 06:57:24;;;;;;;7.43;1.98;;;;;;;;;;5095302;28;20230;-78
2022/07/07 06:59:51;;;;;;;5.97;2.15;;;;;;;;;;5095331;28;20198;-79
2022/07/07 07:02:19;;;;;;;4.30;2.10;;;;;;;;;;5095083;28;20288;-78
2022/07/07 07:04:47;;;;;;;4.53;1.70;;;;;;;;;;5095365;28;20194;-79
2022/07/07 07:07:15;;;;;;;4.80;2.13;;;;;;;;;;5095064;28;20682;-79
2022/07/07 07:09:43;;;;;;;5.65;1.83;;;;;;;;;;5095323;28;20194;-79
2022/07/07 07:12:10;;;;;;;3.30;1.58;;;;;;;;;;5094839;28;20798;-79
2022/07/07 07:14:37;;;;;;;4.25;1.95;;;;;;;;;;5094621;28;20631;-79
2022/07/07 07:17:05;;;;;;;3.95;1.63;;;;;;;;;;5095568;28;20198;-79
2022/07/07 07:19:32;;;;;;;4.40;1.60;;;;;;;;;;5094823;28;20293;-79
2022/07/07 07:21:59;;;;;;;6.28;2.10;;;;;;;;;;5095026;28;20295;-79
2022/07/07 07:24:28;;;;;;;3.88;1.80;;;;;;;;;;5094390;28;20306;-79
2022/07/07 07:26:55;;;;;;;3.75;1.50;;;;;;;;;;5094800;28;20198;-78
2022/07/07 07:29:22;;;;;;;3.40;1.55;;;;;;;;;;5094636;28;20240;-79
2022/07/07 07:31:49;;;;;;;5.00;1.92;;;;;;;;;;5095227;28;20226;-79
2022/07/07 07:34:16;;;;;;;3.05;1.50;;;;;;;;;;5094613;28;20234;-78
2022/07/07 07:36:44;;;;;;;3.85;1.70;;;;;;;;;;5094254;28;20241;-79
2022/07/07 07:39:11;;;;;;;3.58;1.58;;;;;;;;;;5094975;28;20224;-79
2022/07/07 07:41:40;;;;;;;4.03;1.55;;;;;;;;;;5093823;28;20660;-79
2022/07/07 07:44:07;;;;;;;3.60;1.42;;;;;;;;;;5094746;28;20236;-79
2022/07/07 07:46:34;;;;;;;4.32;1.50;;;;;;;;;;5094206;28;20285;-79
2022/07/07 07:49:05;;;;;;;4.85;1.77;;;;;;;;;;5094288;28;20285;-79
2022/07/07 07:51:32;;;;;;;4.10;1.63;;;;;;;;;;5073719;28;20317;-79
2022/07/07 07:53:59;;;;;;;2.92;1.35;;;;;;;;;;5074336;28;20202;-79
2022/07/07 07:56:27;;;;;;;2.72;1.33;;;;;;;;;;5073517;28;20635;-79
2022/07/07 07:58:55;;;;;;;2.75;1.38;;;;;;;;;;5073928;28;20582;-79
2022/07/07 08:01:22;;;;;;;3.85;1.50;;;;;;;;;;5074072;28;20604;-79
2022/07/07 08:03:50;;;;;;;5.28;1.60;;;;;;;;;;5073963;28;20235;-79
2022/07/07 08:06:17;;;;;;;1.90;1.38;;;;;;;;;;5073972;28;20294;-79
2022/07/07 08:08:44;;;;;;;3.72;1.63;;;;;;;;;;5074057;28;20281;-79
2022/07/07 08:11:11;;;;;;;4.88;1.60;;;;;;;;;;5073464;28;20198;-79
2022/07/07 08:13:38;;;;;;;6.00;1.60;;;;;;;;;;5073446;28;20290;-79
2022/07/07 08:16:07;;;;;;;3.72;1.58;;;;;;;;;;5073540;28;20285;-79
2022/07/07 08:18:35;;;;;;;5.13;1.70;;;;;;;;;;5073334;28;20241;-79
2022/07/07 08:21:02;;;;;;;3.92;1.52;;;;;;;;;;5073426;28;20314;-79
2022/07/07 08:23:29;;;;;;;2.13;1.58;;;;;;;;;;5073785;28;20203;-79
2022/07/07 08:25:56;;;;;;;4.32;1.55;;;;;;;;;;5073174;28;20238;-78
2022/07/07 08:28:23;;;;;;;3.72;1.85;;;;;;;;;;5073386;28;20199;-79
2022/07/07 08:30:51;;;;;;;3.35;1.70;;;;;;;;;;5073409;28;20625;-79
2022/07/07 08:33:19;;;;;;;3.47;1.58;;;;;;;;;;5073131;28;20198;-79
2022/07/07 08:35:46;;;;;;;4.57;1.80;;;;;;;;;;5072964;28;20730;-79
2022/07/07 08:38:14;;;;;;;7.55;2.05;;;;;;;;;;5073361;28;20248;-78
2022/07/07 08:40:41;;;;;;;3.38;1.67;;;;;;;;;;5072813;28;20261;-79
2022/07/07 08:43:09;;;;;;;4.57;1.83;;;;;;;;;;5073333;28;20342;-79
2022/07/07 08:45:36;;;;;;;6.10;1.95;;;;;;;;;;5073215;28;20199;-79
2022/07/07 08:48:03;;;;;;;4.53;1.95;;;;;;;;;;5072999;28;20221;-79
2022/07/07 08:50:34;;;;;;;6.28;2.15;;;;;;;;;;5072693;28;20266;-78
2022/07/07 08:53:02;;;;;;;2.70;1.50;;;;;;;;;;5072808;28;20249;-79
2022/07/07 08:55:32;;;;;;;4.57;1.70;;;;;;;;;;5073043;28;20223;-79
2022/07/07 08:57:59;;;;;;;3.17;1.70;;;;;;;;;;5072979;28;20286;-79
2022/07/07 09:00:27;;;;;;;7.03;1.88;;;;;;;;;;5073001;28;20230;-79
2022/07/07 09:02:57;;;;;;;3.63;1.77;;;;;;;;;;5073222;28;20282;-79
2022/07/07 09:05:24;;;;;;;4.25;1.70;;;;;;;;;;5073147;28;20276;-79
2022/07/07 09:07:54;;;;;;;4.53;1.83;;;;;;;;;;5073050;28;20294;-79
2022/07/07 09:10:31;;;;;;;4.90;2.00;;;;;;;;;;5072593;28;20195;-78
2022/07/07 09:12:59;;;;;;;4.22;1.80;;;;;;;;;;5072526;28;20234;-78
2022/07/07 09:15:26;;;;;;;3.47;1.60;;;;;;;;;;5072583;28;20239;-79
2022/07/07 09:17:54;;;;;;;3.97;1.77;;;;;;;;;;5072988;28;20198;-79
2022/07/07 09:20:21;;;;;;;4.35;1.80;;;;;;;;;;5072454;28;20203;-78
2022/07/07 09:22:50;;;;;;;4.75;1.63;;;;;;;;;;5072539;28;20708;-79
2022/07/07 09:25:21;;;;;;;4.60;1.80;;;;;;;;;;5072204;28;20195;-79
2022/07/07 09:27:53;;;;;;;4.82;1.65;;;;;;;;;;5072883;28;20282;-79
2022/07/07 09:30:27;;;;;;;5.13;1.75;;;;;;;;;;5072700;28;20312;-79
2022/07/07 09:32:54;;;;;;;2.95;1.75;;;;;;;;;;5072455;28;20234;-79
2022/07/07 09:38:16;;;;;;;4.78;1.50;;;;;;;;;;5072148;28;20199;-79
2022/07/07 09:40:52;;;;;;;3.25;1.70;;;;;;;;;;5072664;28;20252;-79
2022/07/07 09:43:19;;;;;;;4.18;1.50;;;;;;;;;;5072547;28;20203;-79
2022/07/07 09:45:48;;;;;;;4.45;1.85;;;;;;;;;;5072321;28;20898;-79
2022/07/07 09:48:15;;;;;;;3.85;1.80;;;;;;;;;;5072622;28;20227;-79
2022/07/07 09:50:42;;;;;;;3.60;1.60;;;;;;;;;;5057841;28;20272;-78
2022/07/07 09:53:09;;;;;;;2.50;1.40;;;;;;;;;;5052088;28;20247;-79
2022/07/07 09:55:36;;;;;;;4.57;1.50;;;;;;;;;;5052273;28;20288;-79
2022/07/07 09:58:06;;;;;;;1.60;1.20;;;;;;;;;;5052563;28;20286;-79
2022/07/07 10:00:33;;;;;;;6.95;1.55;;;;;;;;;;5052105;28;20199;-79
2022/07/07 10:03:01;;;;;;;3.70;1.30;;;;;;;;;;5052097;28;20320;-79
2022/07/07 10:05:29;;;;;;;2.50;1.40;;;;;;;;;;5052312;28;20204;-79
2022/07/07 10:07:57;;;;;;;1.67;1.42;;;;;;;;;;5052264;28;20305;-79
2022/07/07 10:10:24;;;;;;;1.88;1.25;;;;;;;;;;5052062;28;20227;-79
2022/07/07 10:12:53;;;;;;;2.47;1.20;;;;;;;;;;5051873;28;20192;-78
2022/07/07 10:15:22;;;;;;;3.08;1.55;;;;;;;;;;5052198;28;20207;-79
2022/07/07 10:17:49;;;;;;;4.15;1.33;;;;;;;;;;5052441;28;20243;-79
2022/07/07 10:20:17;;;;;;;2.40;1.42;;;;;;;;;;5052304;28;20232;-79
2022/07/07 10:22:45;;;;;;;2.85;1.38;;;;;;;;;;5051460;28;20281;-79
2022/07/07 10:25:13;;;;;;;3.38;1.80;;;;;;;;;;5052199;28;20210;-79
2022/07/07 10:27:42;;;;;;;3.97;1.60;;;;;;;;;;5053034;28;20809;-79
2022/07/07 10:30:09;;;;;;;3.08;1.50;;;;;;;;;;5055679;28;20742;-79
2022/07/07 10:32:41;;;;;;;3.10;1.60;;;;;;;;;;5055791;28;20232;-79
2022/07/07 10:35:10;;;;;;;4.35;1.50;;;;;;;;;;5055683;28;20231;-79
2022/07/07 10:37:43;;;;;;;3.88;1.50;;;;;;;;;;5055144;28;20302;-79
2022/07/07 10:40:13;;;;;;;3.05;1.40;;;;;;;;;;5055678;28;20681;-79
2022/07/07 10:42:58;;;;;;;2.83;1.63;;;;;;;;;;5055349;28;20266;-79
2022/07/07 10:45:28;;;;;;;4.38;1.50;;;;;;;;;;5055484;28;20738;-79
2022/07/07 10:47:56;;;;;;;3.20;1.83;;;;;;;;;;5055532;28;20261;-79
2022/07/07 10:50:30;;;;;;;2.13;1.40;;;;;;;;;;5055047;28;20314;-79
2022/07/07 10:52:58;;;;;;;3.88;1.85;;;;;;;;;;5055688;28;20286;-78
2022/07/07 10:55:44;;;;;;;4.03;1.65;;;;;;;;;;5055192;28;20199;-79
2022/07/07 10:58:11;;;;;;;3.05;1.23;;;;;;;;;;5055268;28;20196;-79
2022/07/07 11:00:39;;;;;;;4.13;1.38;;;;;;;;;;5055172;28;20253;-79
2022/07/07 11:03:13;;;;;;;4.32;1.73;;;;;;;;;;5055324;28;20310;-79
2022/07/07 11:05:44;;;;;;;3.92;1.50;;;;;;;;;;5055020;28;20203;-79
2022/07/07 11:08:15;;;;;;;3.53;1.45;;;;;;;;;;5055308;28;20203;-79
2022/07/07 11:10:47;;;;;;;3.58;1.50;;;;;;;;;;5054748;28;20683;-79
2022/07/07 11:13:16;;;;;;;2.90;1.38;;;;;;;;;;5055216;28;20195;-79
2022/07/07 11:15:43;;;;;;;2.00;1.20;;;;;;;;;;5054770;28;20215;-79
2022/07/07 11:18:16;;;;;;;1.42;1.13;;;;;;;;;;5054623;28;20200;-79
2022/07/07 11:20:54;;;;;;;14.43;2.75;;;;;;;;;;5053103;28;20207;-79
2022/07/07 11:23:21;;;;;;;3.90;1.10;;;;;;;;;;5053947;28;20675;-78
2022/07/07 11:25:51;;;;;;;1.75;1.33;;;;;;;;;;5054757;28;20307;-78
2022/07/07 11:28:18;;;;;;;2.35;1.60;;;;;;;;;;5054877;28;20249;-79
2022/07/07 11:30:46;;;;;;;2.08;1.05;;;;;;;;;;5054587;28;20242;-78
2022/07/07 11:33:14;;;;;;;3.03;1.33;;;;;;;;;;5054595;28;20762;-79
2022/07/07 11:35:42;;;;;;;2.97;1.30;;;;;;;;;;5054163;28;20247;-78
2022/07/07 11:38:10;;;;;;;1.75;1.20;;;;;;;;;;5053864;28;20200;-78
2022/07/07 11:40:38;;;;;;;1.52;1.20;;;;;;;;;;5054770;28;20572;-79
2022/07/07 11:43:06;;;;;;;2.58;1.42;;;;;;;;;;5054174;28;20220;-79
2022/07/07 11:45:33;;;;;;;1.35;1.00;;;;;;;;;;5054658;28;20235;-79
2022/07/07 11:48:01;;;;;;;1.83;1.20;;;;;;;;;;5053892;28;20445;-79
2022/07/07 11:50:32;;;;;;;3.03;1.10;;;;;;;;;;5065924;28;20230;-79
2022/07/07 11:53:00;;;;;;;2.78;1.20;;;;;;;;;;5073895;28;20734;-79
2022/07/07 11:55:28;;;;;;;1.92;1.20;;;;;;;;;;5073924;28;20286;-79
2022/07/07 11:57:56;;;;;;;4.10;1.30;;;;;;;;;;5074156;28;20252;-79
2022/07/07 12:00:25;;;;;;;2.08;1.20;;;;;;;;;;5073967;28;20286;-79
2022/07/07 12:02:52;;;;;;;2.28;1.45;;;;;;;;;;5073732;28;20277;-79
2022/07/07 12:05:20;;;;;;;2.50;1.40;;;;;;;;;;5073670;28;20666;-79
2022/07/07 12:07:55;;;;;;;3.60;1.33;;;;;;;;;;5073903;28;20203;-79
2022/07/07 12:10:23;;;;;;;2.45;1.17;;;;;;;;;;5073595;28;20290;-79
2022/07/07 12:12:57;;;;;;;1.85;1.15;;;;;;;;;;5073886;28;20238;-79
2022/07/07 12:15:24;;;;;;;3.40;1.20;;;;;;;;;;5074015;28;20540;-79
2022/07/07 12:17:52;;;;;;;2.70;1.27;;;;;;;;;;5073557;28;20238;-79
2022/07/07 12:20:20;;;;;;;2.45;1.40;;;;;;;;;;5073475;28;20308;-79
2022/07/07 12:22:51;;;;;;;4.57;1.40;;;;;;;;;;5073666;28;20229;-79
2022/07/07 12:25:20;;;;;;;3.33;1.38;;;;;;;;;;5073663;28;20238;-78
2022/07/07 12:27:57;;;;;;;3.22;1.40;;;;;;;;;;5073385;28;20241;-78
2022/07/07 12:30:25;;;;;;;2.72;1.50;;;;;;;;;;5073366;28;20230;-78
2022/07/07 12:32:52;;;;;;;3.13;1.30;;;;;;;;;;5073448;28;20239;-78
2022/07/07 12:35:29;;;;;;;3.45;1.25;;;;;;;;;;5073232;28;20618;-78
2022/07/07 12:37:58;;;;;;;1.83;1.10;;;;;;;;;;5073462;28;20203;-79
2022/07/07 12:40:27;;;;;;;2.35;1.10;;;;;;;;;;5073187;28;20621;-79
2022/07/07 12:42:55;;;;;;;1.50;1.00;;;;;;;;;;5072971;28;20776;-79
2022/07/07 12:45:23;;;;;;;7.28;1.30;;;;;;;;;;5073212;28;20209;-78
2022/07/07 12:47:51;;;;;;;4.63;1.60;;;;;;;;;;5073195;28;20226;-78
2022/07/07 12:50:18;;;;;;;2.35;1.10;;;;;;;;;;5061430;28;20231;-79
2022/07/07 12:52:56;;;;;;;4.40;1.20;;;;;;;;;;5052738;28;20228;-78
2022/07/07 12:55:24;;;;;;;3.53;1.10;;;;;;;;;;5053285;28;20271;-78
2022/07/07 12:57:52;;;;;;;1.58;0.95;;;;;;;;;;5053212;28;20227;-78
2022/07/07 13:00:26;;;;;;;4.57;1.30;;;;;;;;;;5053034;28;20231;-79
2022/07/07 13:02:53;;;;;;;2.10;1.20;;;;;;;;;;5052477;28;20270;-79
2022/07/07 13:05:20;;;;;;;3.72;1.58;;;;;;;;;;5052937;28;20291;-78
2022/07/07 13:07:47;;;;;;;3.30;1.08;;;;;;;;;;5052928;28;20235;-78
2022/07/07 13:10:15;;;;;;;3.58;1.20;;;;;;;;;;5053035;28;20349;-78
2022/07/07 13:12:44;;;;;;;2.63;1.27;;;;;;;;;;5053050;28;20199;-78
2022/07/07 13:15:13;;;;;;;7.47;1.60;;;;;;;;;;5052955;28;20207;-78
2022/07/07 13:17:42;;;;;;;5.65;1.50;;;;;;;;;;5052986;28;20227;-78
2022/07/07 13:20:09;;;;;;;4.00;1.40;;;;;;;;;;5053166;28;20201;-78
2022/07/07 13:22:37;;;;;;;3.45;1.38;;;;;;;;;;5052794;28;20302;-78
2022/07/07 13:25:04;;;;;;;2.70;1.38;;;;;;;;;;5053041;28;20254;-78
2022/07/07 13:27:31;;;;;;;2.95;1.35;;;;;;;;;;5052352;28;20235;-78
2022/07/07 13:29:58;;;;;;;4.13;1.50;;;;;;;;;;5052514;28;20746;-79
2022/07/07 13:32:28;;;;;;;5.55;2.00;;;;;;;;;;5052657;28;20227;-79
2022/07/07 13:34:55;;;;;;;1.88;1.30;;;;;;;;;;5052671;28;20286;-79
2022/07/07 13:37:22;;;;;;;2.88;1.67;;;;;;;;;;5052519;28;20227;-79
2022/07/07 13:39:50;;;;;;;2.95;1.33;;;;;;;;;;5052352;28;20291;-78
2022/07/07 13:42:17;;;;;;;2.13;1.40;;;;;;;;;;5052595;28;20219;-78
2022/07/07 13:44:45;;;;;;;3.33;1.50;;;;;;;;;;5052071;28;20287;-78
2022/07/07 13:47:14;;;;;;;3.35;1.42;;;;;;;;;;5052796;28;20207;-78
2022/07/07 13:49:43;;;;;;;4.35;1.50;;;;;;;;;;5058472;28;20298;-78
2022/07/07 13:52:11;;;;;;;2.15;1.40;;;;;;;;;;5072068;28;20234;-78
2022/07/07 13:54:39;;;;;;;9.40;1.90;;;;;;;;;;5054821;28;20290;-78
2022/07/07 13:57:06;;;;;;;2.92;1.40;;;;;;;;;;5072228;28;20294;-78
2022/07/07 13:59:33;;;;;;;3.45;1.85;;;;;;;;;;5072481;28;20640;-78
2022/07/07 14:02:00;;;;;;;2.67;1.40;;;;;;;;;;5074211;28;20199;-78
2022/07/07 14:04:28;;;;;;;3.22;1.52;;;;;;;;;;5076532;28;20199;-79
2022/07/07 14:06:56;;;;;;;5.35;1.35;;;;;;;;;;5076051;28;20249;-79
2022/07/07 14:09:23;;;;;;;3.20;1.52;;;;;;;;;;5076200;28;20289;-79
2022/07/07 14:11:50;;;;;;;3.67;1.70;;;;;;;;;;5075996;28;20237;-78
2022/07/07 14:14:18;;;;;;;2.95;1.63;;;;;;;;;;5075636;28;20241;-79
2022/07/07 14:16:45;;;;;;;2.95;1.45;;;;;;;;;;5075947;28;20239;-79
2022/07/07 14:19:13;;;;;;;2.95;1.50;;;;;;;;;;5076131;28;20206;-79
2022/07/07 14:21:42;;;;;;;7.13;1.83;;;;;;;;;;5076133;28;20258;-79
2022/07/07 14:24:10;;;;;;;4.55;1.73;;;;;;;;;;5075615;28;20222;-78
2022/07/07 14:26:38;;;;;;;2.22;1.67;;;;;;;;;;5075567;28;20724;-78
2022/07/07 14:29:05;;;;;;;6.50;1.73;;;;;;;;;;5075600;28;20222;-78
2022/07/07 14:31:33;;;;;;;3.50;1.52;;;;;;;;;;5075632;28;20737;-78
2022/07/07 14:34:01;;;;;;;4.95;1.70;;;;;;;;;;5075999;28;20199;-79
2022/07/07 14:36:28;;;;;;;2.92;1.65;;;;;;;;;;5075827;28;20252;-78
2022/07/07 14:38:55;;;;;;;2.40;1.63;;;;;;;;;;5075412;28;20247;-78
2022/07/07 14:41:24;;;;;;;3.72;1.58;;;;;;;;;;5075411;28;20206;-78
2022/07/07 14:43:51;;;;;;;3.97;1.80;;;;;;;;;;5075306;28;20269;-79
2022/07/07 14:46:18;;;;;;;3.15;1.63;;;;;;;;;;5075815;28;20199;-79
2022/07/07 14:48:45;;;;;;;2.50;1.60;;;;;;;;;;5075551;28;20245;-79